Mohrsville, Pennsylvania
Current Conditions -  °F | °C
As of 7:54 AM on Saturday 25 Oct 2014 (Local Time) from KRDG Reporting Station
Clear Clear  
Wind Chill: 41°   Ceiling: Unl
Heat Index: 41°   Visibility: 9mi
Dew Point: 37°   Wind: 0mph
Humidity: 86%   Direction: NA
Pressure: 29.91"   Gusts: NA
Location:  40.47°N, 75.98°W
Report Text: KRDG 251154Z AUTO 00000KT 9SM CLR 05/03 A2991 RMK AO2 SLP135 T00500028 10117 20050 53002
Loading
Personal Weather Stations






























Interactive Weather Map
Tropical Storm Tracking
New forecast layout! Learn more

10-Day Weather Forecast

Advertisements
Track Severe Weather on mobile